Time;durP1;ratioP1;P1;durP2;ratioP2;P2;SDS_P1;SDS_P2;PMS_P1;PMS_P2;Temp;Humidity;BMP_temperature;BMP_pressure;BME280_temperature;BME280_humidity;BME280_pressure;Samples;Min_cycle;Max_cycle;Signal;HPM_P1;HPM_P2
2024/02/11 00:00:33;;;;;;;17.88;3.28;;;;;;;;;;5030484;28;20033;-66
2024/02/11 00:02:59;;;;;;;16.85;2.97;;;;;;;;;;5029719;28;20041;-67
2024/02/11 00:05:26;;;;;;;13.98;3.05;;;;;;;;;;5029907;28;20045;-69
2024/02/11 00:07:51;;;;;;;16.52;3.38;;;;;;;;;;5030021;28;20644;-69
2024/02/11 00:10:17;;;;;;;27.75;3.05;;;;;;;;;;5027380;28;20124;-69
2024/02/11 00:12:42;;;;;;;15.77;3.00;;;;;;;;;;5030275;28;20033;-69
2024/02/11 00:15:08;;;;;;;15.02;3.70;;;;;;;;;;5029854;28;20025;-66
2024/02/11 00:17:37;;;;;;;14.05;3.40;;;;;;;;;;5027953;28;20112;-65
2024/02/11 00:20:13;;;;;;;11.30;3.17;;;;;;;;;;5030068;28;20362;-68
2024/02/11 00:22:39;;;;;;;23.33;3.65;;;;;;;;;;5031444;28;20083;-65
2024/02/11 00:25:07;;;;;;;18.23;3.83;;;;;;;;;;5033539;28;20439;-66
2024/02/11 00:27:32;;;;;;;13.77;3.58;;;;;;;;;;5028761;28;20040;-65
2024/02/11 00:29:58;;;;;;;14.85;3.65;;;;;;;;;;5033933;28;20029;-67
2024/02/11 00:32:24;;;;;;;12.20;3.25;;;;;;;;;;5033221;28;20045;-67
2024/02/11 00:34:50;;;;;;;10.27;3.38;;;;;;;;;;5031761;28;20037;-68
2024/02/11 00:37:15;;;;;;;9.00;3.15;;;;;;;;;;5033711;28;20041;-68
2024/02/11 00:39:40;;;;;;;17.83;3.33;;;;;;;;;;5033669;28;20572;-67
2024/02/11 00:42:06;;;;;;;20.67;3.33;;;;;;;;;;5033413;28;20500;-67
2024/02/11 00:44:31;;;;;;;18.52;3.80;;;;;;;;;;5032672;28;20128;-68
2024/02/11 00:46:58;;;;;;;14.32;3.72;;;;;;;;;;5033920;28;20400;-67
2024/02/11 00:49:24;;;;;;;18.13;3.53;;;;;;;;;;5032405;28;20049;-67
2024/02/11 00:51:49;;;;;;;9.85;2.70;;;;;;;;;;5033605;28;20037;-67
2024/02/11 00:54:15;;;;;;;17.60;3.75;;;;;;;;;;5033442;28;20041;-67
2024/02/11 00:56:43;;;;;;;11.85;3.08;;;;;;;;;;5033223;28;20086;-67
2024/02/11 00:59:10;;;;;;;13.77;3.15;;;;;;;;;;5033256;28;20029;-67
2024/02/11 01:01:35;;;;;;;16.83;2.53;;;;;;;;;;5033246;28;20517;-67
2024/02/11 01:04:01;;;;;;;15.70;2.53;;;;;;;;;;5031942;28;20037;-69
2024/02/11 01:06:26;;;;;;;19.70;3.38;;;;;;;;;;5032457;28;20197;-68
2024/02/11 01:08:52;;;;;;;15.35;2.80;;;;;;;;;;5033218;28;20503;-67
2024/02/11 01:11:19;;;;;;;12.50;2.55;;;;;;;;;;5032885;28;20134;-68
2024/02/11 01:13:45;;;;;;;12.90;3.08;;;;;;;;;;5033119;28;20372;-67
2024/02/11 01:16:10;;;;;;;13.77;2.95;;;;;;;;;;5033273;28;20060;-67
2024/02/11 01:18:35;;;;;;;12.55;3.15;;;;;;;;;;5032743;28;20453;-67
2024/02/11 01:21:01;;;;;;;15.80;3.38;;;;;;;;;;5033541;28;20029;-68
2024/02/11 01:23:28;;;;;;;9.02;2.65;;;;;;;;;;5032756;28;20048;-68
2024/02/11 01:25:53;;;;;;;13.35;3.80;;;;;;;;;;5034623;28;20484;-67
2024/02/11 01:28:18;;;;;;;11.38;2.92;;;;;;;;;;5033216;28;20033;-67
2024/02/11 01:30:45;;;;;;;20.70;3.08;;;;;;;;;;5031938;28;20594;-68
2024/02/11 01:33:10;;;;;;;12.60;2.63;;;;;;;;;;5031540;28;20128;-68
2024/02/11 01:35:36;;;;;;;15.70;3.00;;;;;;;;;;5031133;28;20104;-67
2024/02/11 01:38:01;;;;;;;11.23;2.45;;;;;;;;;;5031838;28;20064;-67
2024/02/11 01:40:26;;;;;;;13.20;2.45;;;;;;;;;;5032376;28;20120;-68
2024/02/11 01:43:00;;;;;;;15.50;2.72;;;;;;;;;;5032475;28;20096;-67
2024/02/11 01:45:25;;;;;;;12.23;2.70;;;;;;;;;;5031195;28;20111;-67
2024/02/11 01:47:51;;;;;;;11.32;2.63;;;;;;;;;;5032708;28;20046;-67
2024/02/11 01:50:17;;;;;;;11.05;2.42;;;;;;;;;;5028761;28;20037;-68
2024/02/11 01:52:42;;;;;;;10.75;2.63;;;;;;;;;;5031386;28;20046;-67
2024/02/11 01:55:10;;;;;;;8.02;2.58;;;;;;;;;;5032389;28;20033;-67
2024/02/11 01:57:36;;;;;;;9.40;2.70;;;;;;;;;;5032231;28;20033;-68
2024/02/11 02:00:02;;;;;;;13.43;2.70;;;;;;;;;;5014346;28;20046;-69
2024/02/11 02:02:28;;;;;;;21.10;3.05;;;;;;;;;;5031889;28;20040;-66
2024/02/11 02:04:54;;;;;;;10.80;2.53;;;;;;;;;;5014282;28;20041;-67
2024/02/11 02:07:20;;;;;;;15.07;2.53;;;;;;;;;;5031242;28;20720;-67
2024/02/11 02:09:45;;;;;;;13.25;3.40;;;;;;;;;;5032178;28;20042;-68
2024/02/11 02:12:10;;;;;;;16.38;2.50;;;;;;;;;;5031017;28;20572;-68
2024/02/11 02:14:36;;;;;;;12.27;2.63;;;;;;;;;;5031811;28;20538;-67
2024/02/11 02:17:02;;;;;;;15.88;2.80;;;;;;;;;;5030004;28;20524;-68
2024/02/11 02:19:27;;;;;;;15.65;2.90;;;;;;;;;;5031792;28;20026;-67
2024/02/11 02:21:54;;;;;;;11.77;2.78;;;;;;;;;;5031779;28;20048;-67
2024/02/11 02:24:20;;;;;;;15.52;2.60;;;;;;;;;;5031625;28;20373;-66
2024/02/11 02:26:46;;;;;;;8.63;2.78;;;;;;;;;;5031991;28;20044;-67
2024/02/11 02:29:12;;;;;;;8.07;2.58;;;;;;;;;;5030358;28;20037;-68
2024/02/11 02:31:37;;;;;;;10.57;2.72;;;;;;;;;;5031251;28;20040;-68
2024/02/11 02:34:02;;;;;;;14.98;3.33;;;;;;;;;;5030390;28;20389;-68
2024/02/11 02:36:28;;;;;;;18.58;3.13;;;;;;;;;;5029831;28;20497;-67
2024/02/11 02:38:53;;;;;;;16.15;3.03;;;;;;;;;;5031039;28;20584;-67
2024/02/11 02:41:19;;;;;;;16.42;3.42;;;;;;;;;;5031306;28;20029;-67
2024/02/11 02:43:46;;;;;;;17.45;3.20;;;;;;;;;;5030965;28;20068;-67
2024/02/11 02:46:12;;;;;;;12.82;2.80;;;;;;;;;;5031610;28;20086;-67
2024/02/11 02:48:37;;;;;;;22.77;4.70;;;;;;;;;;5031174;28;20112;-67
2024/02/11 02:51:03;;;;;;;12.32;2.90;;;;;;;;;;5031166;28;20049;-68
2024/02/11 02:53:28;;;;;;;11.88;3.10;;;;;;;;;;5026884;28;20049;-67
2024/02/11 02:55:55;;;;;;;14.27;2.63;;;;;;;;;;5031354;28;20065;-67
2024/02/11 02:58:23;;;;;;;13.48;3.15;;;;;;;;;;5030751;28;20037;-67
2024/02/11 03:00:49;;;;;;;17.65;2.85;;;;;;;;;;5030527;28;20044;-68
2024/02/11 03:03:14;;;;;;;14.70;2.90;;;;;;;;;;5030772;28;20033;-67
2024/02/11 03:05:40;;;;;;;12.70;3.10;;;;;;;;;;5030555;28;20555;-68
2024/02/11 03:08:06;;;;;;;9.18;2.55;;;;;;;;;;5030272;28;20045;-67
2024/02/11 03:10:35;;;;;;;14.02;2.60;;;;;;;;;;5031038;28;20022;-67
2024/02/11 03:13:00;;;;;;;19.25;2.50;;;;;;;;;;5030817;28;20124;-67
2024/02/11 03:15:27;;;;;;;16.02;2.80;;;;;;;;;;5030468;28;20128;-67
2024/02/11 03:17:52;;;;;;;12.60;3.03;;;;;;;;;;5031214;28;20116;-67
2024/02/11 03:20:17;;;;;;;17.42;2.47;;;;;;;;;;5029735;28;20533;-67
2024/02/11 03:22:43;;;;;;;14.30;2.38;;;;;;;;;;5030142;28;20053;-67
2024/02/11 03:25:09;;;;;;;14.90;2.47;;;;;;;;;;5031059;28;20064;-68
2024/02/11 03:27:36;;;;;;;14.45;2.95;;;;;;;;;;5031046;28;20116;-67
2024/02/11 03:30:03;;;;;;;15.48;3.30;;;;;;;;;;5010630;28;20033;-67
2024/02/11 03:32:30;;;;;;;12.75;2.88;;;;;;;;;;5030323;28;20045;-68
2024/02/11 03:34:55;;;;;;;17.25;3.13;;;;;;;;;;5029619;28;20030;-67
2024/02/11 03:37:20;;;;;;;15.52;3.20;;;;;;;;;;5030059;28;20041;-67
2024/02/11 03:39:49;;;;;;;25.20;4.05;;;;;;;;;;5030688;28;20029;-68
2024/02/11 03:42:14;;;;;;;24.58;3.08;;;;;;;;;;5030479;28;20049;-69
2024/02/11 03:44:39;;;;;;;20.52;2.92;;;;;;;;;;5030159;28;20080;-67
2024/02/11 03:47:05;;;;;;;12.48;2.67;;;;;;;;;;5030337;28;20083;-68
2024/02/11 03:49:30;;;;;;;22.10;3.00;;;;;;;;;;5018420;28;20120;-69
2024/02/11 03:51:56;;;;;;;20.92;2.65;;;;;;;;;;5030307;28;20392;-67
2024/02/11 03:54:22;;;;;;;10.93;2.40;;;;;;;;;;5028161;28;20492;-67
2024/02/11 03:56:48;;;;;;;21.77;3.05;;;;;;;;;;5028712;28;20116;-67
2024/02/11 03:59:13;;;;;;;11.05;2.80;;;;;;;;;;5030509;28;20736;-68
2024/02/11 04:01:39;;;;;;;15.85;2.92;;;;;;;;;;5029407;28;20388;-67
2024/02/11 04:04:04;;;;;;;31.25;3.67;;;;;;;;;;5029904;28;20523;-68
2024/02/11 04:06:31;;;;;;;23.25;3.08;;;;;;;;;;5029182;28;20374;-67
2024/02/11 04:08:57;;;;;;;8.60;2.72;;;;;;;;;;5030031;28;20036;-67
2024/02/11 04:11:26;;;;;;;16.63;2.95;;;;;;;;;;5030052;28;20037;-67
2024/02/11 04:13:54;;;;;;;11.45;3.13;;;;;;;;;;5030154;28;20034;-68
2024/02/11 04:16:22;;;;;;;16.30;3.15;;;;;;;;;;5026122;28;20037;-67
2024/02/11 04:18:49;;;;;;;24.17;2.95;;;;;;;;;;5028850;28;20404;-68
2024/02/11 04:21:20;;;;;;;15.50;2.97;;;;;;;;;;5028789;28;20038;-68
2024/02/11 04:23:48;;;;;;;18.08;3.25;;;;;;;;;;5029771;28;20025;-67
2024/02/11 04:26:17;;;;;;;17.70;3.08;;;;;;;;;;5029819;28;20049;-67
2024/02/11 04:28:45;;;;;;;16.42;2.95;;;;;;;;;;5030016;28;20477;-67
2024/02/11 04:31:12;;;;;;;18.45;3.17;;;;;;;;;;5029294;28;20036;-67
2024/02/11 04:33:40;;;;;;;17.63;3.83;;;;;;;;;;5029285;28;20041;-68
2024/02/11 04:36:13;;;;;;;11.13;2.55;;;;;;;;;;5029763;28;20034;-67
2024/02/11 04:38:39;;;;;;;14.77;3.03;;;;;;;;;;5029563;28;20505;-67
2024/02/11 04:41:07;;;;;;;15.40;3.22;;;;;;;;;;5012170;28;20120;-68
2024/02/11 04:43:35;;;;;;;22.95;3.38;;;;;;;;;;5030126;28;20037;-66
2024/02/11 04:46:02;;;;;;;21.70;3.15;;;;;;;;;;5029723;28;20117;-69
2024/02/11 04:48:31;;;;;;;15.75;3.22;;;;;;;;;;5029078;28;20069;-67
2024/02/11 04:50:58;;;;;;;10.40;2.85;;;;;;;;;;5029869;28;20033;-67
2024/02/11 04:53:24;;;;;;;18.60;3.20;;;;;;;;;;5028698;28;20076;-67
2024/02/11 04:55:50;;;;;;;19.83;2.85;;;;;;;;;;5029548;28;20057;-68
2024/02/11 04:58:19;;;;;;;27.38;3.47;;;;;;;;;;5029511;28;20030;-68
2024/02/11 05:00:48;;;;;;;18.83;4.10;;;;;;;;;;5004059;28;20413;-67
2024/02/11 05:03:17;;;;;;;22.92;3.28;;;;;;;;;;5028387;28;20099;-68
2024/02/11 05:05:44;;;;;;;20.58;3.95;;;;;;;;;;5029037;28;20049;-68
2024/02/11 05:08:10;;;;;;;19.17;3.70;;;;;;;;;;5029852;28;20041;-68
2024/02/11 05:10:39;;;;;;;26.77;3.72;;;;;;;;;;5031645;28;20034;-67
2024/02/11 05:13:08;;;;;;;20.90;4.72;;;;;;;;;;5033400;28;20079;-68
2024/02/11 05:15:34;;;;;;;19.40;3.83;;;;;;;;;;5032612;28;20389;-68
2024/02/11 05:18:00;;;;;;;21.88;3.78;;;;;;;;;;5033002;28;20041;-68
2024/02/11 05:20:27;;;;;;;16.15;3.92;;;;;;;;;;5033223;28;20041;-67
2024/02/11 05:22:55;;;;;;;20.33;5.40;;;;;;;;;;5032991;28;20040;-66
2024/02/11 05:25:21;;;;;;;16.20;3.85;;;;;;;;;;5017847;28;20084;-67
2024/02/11 05:27:59;;;;;;;23.27;4.45;;;;;;;;;;5031847;28;20103;-66
2024/02/11 05:30:25;;;;;;;12.45;4.18;;;;;;;;;;5014991;28;20396;-67
2024/02/11 05:32:56;;;;;;;17.02;4.53;;;;;;;;;;5032945;28;20057;-67
2024/02/11 05:35:23;;;;;;;16.25;3.95;;;;;;;;;;5032398;28;20044;-66
2024/02/11 05:37:57;;;;;;;14.13;4.20;;;;;;;;;;5032534;28;20056;-67
2024/02/11 05:40:23;;;;;;;19.25;4.07;;;;;;;;;;5032600;28;20025;-67
2024/02/11 05:42:49;;;;;;;19.38;4.65;;;;;;;;;;5032701;28;20124;-66
2024/02/11 05:45:15;;;;;;;17.02;4.10;;;;;;;;;;5031692;28;20596;-66
2024/02/11 05:47:42;;;;;;;21.63;4.93;;;;;;;;;;5031787;28;20608;-67
2024/02/11 05:50:08;;;;;;;19.75;4.75;;;;;;;;;;5031504;28;20504;-68
2024/02/11 05:52:34;;;;;;;11.10;4.43;;;;;;;;;;5032619;28;20041;-66
2024/02/11 05:54:59;;;;;;;18.83;5.10;;;;;;;;;;5033047;28;20042;-67
2024/02/11 05:57:25;;;;;;;18.02;4.20;;;;;;;;;;5032203;28;20048;-66
2024/02/11 05:59:50;;;;;;;27.08;4.35;;;;;;;;;;5031135;28;20084;-68
2024/02/11 06:02:16;;;;;;;37.72;4.35;;;;;;;;;;5031878;28;20040;-67
2024/02/11 06:04:41;;;;;;;24.08;4.20;;;;;;;;;;5031129;28;20045;-67
2024/02/11 06:07:08;;;;;;;21.38;4.07;;;;;;;;;;5032206;28;20041;-68
2024/02/11 06:09:34;;;;;;;29.25;5.30;;;;;;;;;;5032435;28;20042;-66
2024/02/11 06:12:00;;;;;;;12.80;5.05;;;;;;;;;;5031943;28;20507;-67
2024/02/11 06:14:26;;;;;;;8.75;3.75;;;;;;;;;;5031739;28;20488;-67
2024/02/11 06:16:52;;;;;;;31.05;4.60;;;;;;;;;;5032006;28;20465;-66
2024/02/11 06:19:19;;;;;;;18.88;5.35;;;;;;;;;;5031206;28;20038;-66
2024/02/11 06:21:44;;;;;;;18.45;4.60;;;;;;;;;;5029979;28;20041;-66
2024/02/11 06:24:10;;;;;;;14.95;4.30;;;;;;;;;;5031644;28;20062;-66
2024/02/11 06:26:35;;;;;;;14.15;4.65;;;;;;;;;;5029928;28;20076;-68
2024/02/11 06:29:01;;;;;;;10.43;4.43;;;;;;;;;;5030861;28;20029;-66
2024/02/11 06:31:26;;;;;;;21.05;5.40;;;;;;;;;;5030604;28;20496;-67
2024/02/11 06:33:53;;;;;;;15.45;5.05;;;;;;;;;;5031482;28;20076;-67
2024/02/11 06:36:19;;;;;;;15.32;4.43;;;;;;;;;;5031141;28;20408;-67
2024/02/11 06:38:44;;;;;;;14.98;5.35;;;;;;;;;;5031948;28;20045;-67
2024/02/11 06:41:09;;;;;;;24.08;4.63;;;;;;;;;;5031563;28;20045;-67
2024/02/11 06:43:35;;;;;;;25.50;4.88;;;;;;;;;;5030973;28;20033;-67
2024/02/11 06:46:03;;;;;;;12.52;4.90;;;;;;;;;;5031130;28;20056;-67
2024/02/11 06:48:28;;;;;;;9.73;4.53;;;;;;;;;;5031154;28;20045;-66
2024/02/11 06:50:54;;;;;;;21.60;5.93;;;;;;;;;;5037069;28;20035;-66
2024/02/11 06:53:20;;;;;;;14.70;4.55;;;;;;;;;;5030864;28;20080;-67
2024/02/11 06:55:46;;;;;;;24.95;4.13;;;;;;;;;;5031673;28;20053;-66
2024/02/11 06:58:11;;;;;;;16.30;5.13;;;;;;;;;;5029495;28;20048;-68
2024/02/11 07:00:37;;;;;;;25.25;4.47;;;;;;;;;;5029996;28;20030;-66
2024/02/11 07:03:03;;;;;;;13.82;4.57;;;;;;;;;;5029976;28;20033;-67
2024/02/11 07:05:30;;;;;;;20.08;4.85;;;;;;;;;;5030658;28;20049;-68
2024/02/11 07:07:56;;;;;;;24.60;4.03;;;;;;;;;;5030894;28;20064;-67
2024/02/11 07:10:21;;;;;;;19.40;4.63;;;;;;;;;;5031194;28;20069;-67
2024/02/11 07:12:47;;;;;;;26.80;4.53;;;;;;;;;;5030938;28;20064;-66
2024/02/11 07:15:13;;;;;;;23.52;4.65;;;;;;;;;;5030429;28;20048;-67
2024/02/11 07:17:41;;;;;;;15.18;5.00;;;;;;;;;;5023890;28;20156;-66
2024/02/11 07:20:08;;;;;;;19.38;4.10;;;;;;;;;;5027915;28;20076;-67
2024/02/11 07:22:34;;;;;;;18.67;4.25;;;;;;;;;;5028434;28;20133;-67
2024/02/11 07:24:59;;;;;;;12.45;5.32;;;;;;;;;;5029700;28;20136;-67
2024/02/11 07:27:26;;;;;;;12.35;4.68;;;;;;;;;;5028238;28;20033;-68
2024/02/11 07:29:52;;;;;;;24.38;5.35;;;;;;;;;;5028030;28;20033;-67
2024/02/11 07:32:17;;;;;;;28.25;4.93;;;;;;;;;;5029610;28;20045;-67
2024/02/11 07:34:42;;;;;;;26.13;5.57;;;;;;;;;;5030576;28;20520;-67
2024/02/11 07:37:08;;;;;;;25.23;5.20;;;;;;;;;;5030024;28;20064;-67
2024/02/11 07:39:33;;;;;;;18.63;4.47;;;;;;;;;;5030262;28;20041;-67
2024/02/11 07:41:58;;;;;;;22.92;5.30;;;;;;;;;;5030531;28;20056;-68
2024/02/11 07:44:24;;;;;;;11.43;4.93;;;;;;;;;;5030043;28;20100;-66
2024/02/11 07:46:53;;;;;;;12.40;5.22;;;;;;;;;;5030038;28;20485;-66
2024/02/11 07:49:19;;;;;;;19.42;4.75;;;;;;;;;;5012767;28;20079;-67
2024/02/11 07:51:45;;;;;;;16.42;4.43;;;;;;;;;;5028315;28;20053;-67
2024/02/11 07:54:11;;;;;;;25.92;5.00;;;;;;;;;;5028543;28;20042;-68
2024/02/11 07:56:37;;;;;;;26.42;5.07;;;;;;;;;;5030245;28;20080;-68
2024/02/11 07:59:02;;;;;;;49.67;5.10;;;;;;;;;;5029962;28;20049;-67
2024/02/11 08:01:28;;;;;;;29.52;4.55;;;;;;;;;;5029898;28;20033;-67
2024/02/11 08:03:53;;;;;;;34.60;4.95;;;;;;;;;;5029815;28;20723;-66
2024/02/11 08:06:19;;;;;;;28.80;4.95;;;;;;;;;;5028183;28;20664;-66
2024/02/11 08:08:44;;;;;;;29.92;4.68;;;;;;;;;;5029918;28;20065;-66
2024/02/11 08:11:10;;;;;;;27.48;4.68;;;;;;;;;;5030204;28;20091;-67
2024/02/11 08:13:35;;;;;;;21.92;4.50;;;;;;;;;;5030385;28;20037;-67
2024/02/11 08:16:03;;;;;;;35.42;4.88;;;;;;;;;;5029826;28;20049;-67
2024/02/11 08:18:28;;;;;;;29.60;4.72;;;;;;;;;;5030306;28;20029;-67
2024/02/11 08:20:55;;;;;;;36.75;4.38;;;;;;;;;;5030240;28;20695;-67
2024/02/11 08:23:22;;;;;;;42.22;5.38;;;;;;;;;;5028970;28;20507;-67
2024/02/11 08:25:49;;;;;;;21.98;3.97;;;;;;;;;;5030084;28;20041;-66
2024/02/11 08:28:15;;;;;;;29.92;4.57;;;;;;;;;;5029891;28;20034;-67
2024/02/11 08:30:40;;;;;;;28.00;5.03;;;;;;;;;;5029189;28;20056;-67
2024/02/11 08:33:05;;;;;;;23.08;3.78;;;;;;;;;;5028836;28;20041;-67
2024/02/11 08:35:32;;;;;;;87.88;5.70;;;;;;;;;;5029774;28;20113;-67
2024/02/11 08:37:57;;;;;;;29.05;4.50;;;;;;;;;;5013012;28;20095;-67
2024/02/11 08:40:23;;;;;;;19.83;4.60;;;;;;;;;;5029108;28;20117;-67
2024/02/11 08:42:49;;;;;;;36.95;4.70;;;;;;;;;;5030527;28;20411;-67
2024/02/11 08:45:15;;;;;;;35.45;4.47;;;;;;;;;;5032743;28;20567;-68
2024/02/11 08:47:41;;;;;;;14.52;4.15;;;;;;;;;;5029896;28;20171;-68
2024/02/11 08:50:07;;;;;;;19.77;3.13;;;;;;;;;;5033597;28;20112;-67
2024/02/11 08:52:33;;;;;;;16.80;3.28;;;;;;;;;;5031849;28;20131;-68
2024/02/11 08:54:59;;;;;;;20.92;4.78;;;;;;;;;;5031170;28;20508;-68
2024/02/11 08:57:26;;;;;;;20.70;3.70;;;;;;;;;;5031313;28;20034;-68
2024/02/11 08:59:52;;;;;;;30.08;4.18;;;;;;;;;;5031629;28;20041;-69
2024/02/11 09:02:18;;;;;;;20.38;4.28;;;;;;;;;;5027941;28;20603;-68
2024/02/11 09:04:43;;;;;;;34.60;4.22;;;;;;;;;;5032372;28;20140;-68
2024/02/11 09:07:10;;;;;;;14.98;3.42;;;;;;;;;;5031758;28;20044;-69
2024/02/11 09:09:36;;;;;;;21.33;3.50;;;;;;;;;;5014681;28;20087;-69
2024/02/11 09:12:02;;;;;;;21.92;4.22;;;;;;;;;;4998608;28;20029;-68
2024/02/11 09:14:29;;;;;;;20.35;3.20;;;;;;;;;;5014344;28;20057;-69
2024/02/11 09:16:58;;;;;;;18.60;3.42;;;;;;;;;;5014200;28;20064;-69
2024/02/11 09:19:25;;;;;;;22.58;4.18;;;;;;;;;;5013935;28;20112;-68
2024/02/11 09:21:51;;;;;;;11.30;3.15;;;;;;;;;;5032724;28;20556;-68
2024/02/11 09:24:17;;;;;;;8.30;2.60;;;;;;;;;;5031787;28;20112;-66
2024/02/11 09:26:42;;;;;;;16.48;3.63;;;;;;;;;;5032550;28;20067;-66
2024/02/11 09:29:08;;;;;;;14.00;3.30;;;;;;;;;;5032910;28;20479;-66
2024/02/11 09:31:34;;;;;;;;;;;;;;;;;;5032484;28;20069;-66
2024/02/11 09:34:00;;;;;;;;;;;;;;;;;;5031634;28;24089;-66
2024/02/11 09:36:25;;;;;;;9.45;3.30;;;;;;;;;;5032983;28;20061;-66
2024/02/11 09:38:50;;;;;;;;;;;;;;;;;;5033071;28;20040;-68
2024/02/11 09:41:15;;;;;;;12.48;4.18;;;;;;;;;;5032497;28;19928;-67
2024/02/11 09:43:41;;;;;;;10.07;4.53;;;;;;;;;;5032669;28;20393;-66
2024/02/11 09:46:07;;;;;;;16.05;4.70;;;;;;;;;;5031526;28;20042;-68
2024/02/11 09:48:34;;;;;;;14.57;4.72;;;;;;;;;;5031829;28;20518;-67
2024/02/11 09:51:00;;;;;;;12.82;4.43;;;;;;;;;;5031498;28;20176;-66
2024/02/11 09:53:27;;;;;;;15.50;4.30;;;;;;;;;;5013191;28;20104;-67
2024/02/11 09:55:53;;;;;;;12.30;4.45;;;;;;;;;;5031443;28;20366;-67
2024/02/11 09:58:18;;;;;;;14.20;3.92;;;;;;;;;;5032590;28;20113;-67
2024/02/11 10:00:44;;;;;;;9.98;3.10;;;;;;;;;;5032486;28;20038;-70
2024/02/11 10:03:12;;;;;;;12.60;3.25;;;;;;;;;;5030960;28;20056;-69
2024/02/11 10:05:39;;;;;;;10.82;3.22;;;;;;;;;;5014596;28;20103;-69
2024/02/11 10:08:13;;;;;;;6.85;2.85;;;;;;;;;;5032580;28;20404;-69
2024/02/11 10:10:39;;;;;;;9.05;2.50;;;;;;;;;;5030768;28;20445;-68
2024/02/11 10:13:07;;;;;;;5.03;2.03;;;;;;;;;;5032294;28;20026;-67
2024/02/11 10:15:35;;;;;;;5.93;1.92;;;;;;;;;;5032054;28;20550;-67
2024/02/11 10:18:07;;;;;;;12.80;2.10;;;;;;;;;;5032052;28;20045;-66
2024/02/11 10:20:36;;;;;;;9.25;1.90;;;;;;;;;;5030804;28;20044;-65
2024/02/11 10:23:05;;;;;;;11.20;2.28;;;;;;;;;;5032018;28;20045;-70
2024/02/11 10:25:33;;;;;;;6.75;2.22;;;;;;;;;;5030488;28;20564;-68
2024/02/11 10:28:01;;;;;;;8.40;1.90;;;;;;;;;;5031991;28;20033;-68
2024/02/11 10:30:27;;;;;;;9.57;2.42;;;;;;;;;;5031900;28;20064;-68
2024/02/11 10:32:58;;;;;;;9.90;2.40;;;;;;;;;;5031693;28;20061;-68
2024/02/11 10:35:26;;;;;;;7.75;2.03;;;;;;;;;;5030204;28;20083;-68
2024/02/11 10:37:52;;;;;;;7.07;2.03;;;;;;;;;;5030724;28;20041;-68
2024/02/11 10:40:19;;;;;;;7.20;1.90;;;;;;;;;;5031664;28;20033;-68
2024/02/11 10:42:45;;;;;;;9.45;1.90;;;;;;;;;;5031696;28;20038;-69
2024/02/11 10:45:11;;;;;;;9.43;2.60;;;;;;;;;;5031671;28;20091;-67
2024/02/11 10:47:36;;;;;;;5.88;1.90;;;;;;;;;;5031306;28;20034;-67
2024/02/11 10:50:03;;;;;;;14.63;2.70;;;;;;;;;;5029901;28;20104;-68
2024/02/11 10:52:31;;;;;;;14.50;2.40;;;;;;;;;;5031404;28;20041;-67
2024/02/11 10:54:59;;;;;;;7.53;2.13;;;;;;;;;;5031625;28;20080;-68
2024/02/11 10:57:30;;;;;;;9.93;2.08;;;;;;;;;;5027075;28;20613;-68
2024/02/11 11:00:01;;;;;;;15.35;2.42;;;;;;;;;;5030264;28;20048;-67
2024/02/11 11:02:29;;;;;;;7.97;1.73;;;;;;;;;;5031251;28;20034;-68
2024/02/11 11:04:57;;;;;;;6.70;2.13;;;;;;;;;;5030858;28;20171;-67
2024/02/11 11:07:23;;;;;;;9.25;2.25;;;;;;;;;;5025523;28;20037;-68
2024/02/11 11:09:48;;;;;;;4.50;1.88;;;;;;;;;;5030121;28;20033;-67
2024/02/11 11:12:15;;;;;;;7.03;2.22;;;;;;;;;;5013082;28;20447;-68
2024/02/11 11:14:42;;;;;;;8.18;2.17;;;;;;;;;;5031041;28;20049;-68
2024/02/11 11:17:16;;;;;;;7.18;1.90;;;;;;;;;;5031118;28;20108;-68
2024/02/11 11:19:46;;;;;;;;;;;;;;;;;;5030530;28;20098;-68
2024/02/11 11:22:12;;;;;;;5.35;2.00;;;;;;;;;;5030914;28;19918;-67
2024/02/11 11:24:39;;;;;;;9.98;2.80;;;;;;;;;;5030779;28;20063;-67
2024/02/11 11:27:04;;;;;;;7.35;2.15;;;;;;;;;;5013064;28;20044;-68
2024/02/11 11:29:32;;;;;;;12.55;2.90;;;;;;;;;;5030660;28;20033;-69
2024/02/11 11:31:58;;;;;;;6.53;2.40;;;;;;;;;;5029244;28;20041;-68
2024/02/11 11:34:25;;;;;;;10.98;2.97;;;;;;;;;;5030647;28;20040;-69
2024/02/11 11:36:50;;;;;;;6.57;2.40;;;;;;;;;;5030547;28;20038;-67
2024/02/11 11:39:15;;;;;;;9.45;2.60;;;;;;;;;;5030907;28;20041;-68
2024/02/11 11:41:44;;;;;;;9.15;2.40;;;;;;;;;;5030484;28;20042;-68
2024/02/11 11:44:09;;;;;;;8.25;2.70;;;;;;;;;;5029998;28;20044;-67
2024/02/11 11:46:35;;;;;;;8.65;2.40;;;;;;;;;;5030267;28;20034;-68
2024/02/11 11:49:00;;;;;;;12.95;2.83;;;;;;;;;;5030563;28;20040;-68
2024/02/11 11:51:30;;;;;;;8.63;2.45;;;;;;;;;;5028867;28;20038;-68
2024/02/11 11:53:55;;;;;;;9.27;2.60;;;;;;;;;;5030680;28;20084;-67
2024/02/11 11:56:23;;;;;;;9.60;2.65;;;;;;;;;;5030373;28;20061;-67
2024/02/11 11:58:48;;;;;;;12.52;2.38;;;;;;;;;;5029028;28;20041;-68
2024/02/11 12:01:16;;;;;;;9.82;2.97;;;;;;;;;;5030452;28;20041;-67
2024/02/11 12:03:43;;;;;;;5.53;2.00;;;;;;;;;;5030272;28;20044;-68
2024/02/11 12:06:09;;;;;;;7.45;2.75;;;;;;;;;;5029781;28;20053;-67
2024/02/11 12:08:34;;;;;;;3.50;1.63;;;;;;;;;;5029900;28;20459;-67
2024/02/11 12:11:04;;;;;;;10.63;2.67;;;;;;;;;;5012716;28;20037;-69
2024/02/11 12:13:32;;;;;;;5.70;1.67;;;;;;;;;;5029699;28;20029;-69
2024/02/11 12:15:59;;;;;;;8.10;2.33;;;;;;;;;;5029210;28;20037;-69
2024/02/11 12:18:26;;;;;;;8.85;2.60;;;;;;;;;;5027172;28;20071;-68
2024/02/11 12:20:53;;;;;;;11.65;3.25;;;;;;;;;;5012413;28;20048;-68
2024/02/11 12:23:19;;;;;;;6.63;2.50;;;;;;;;;;5012440;28;20041;-69
2024/02/11 12:25:51;;;;;;;10.02;3.75;;;;;;;;;;5028724;28;20047;-69
2024/02/11 12:28:24;;;;;;;5.57;1.90;;;;;;;;;;5029943;28;20025;-68
2024/02/11 12:30:50;;;;;;;9.13;2.83;;;;;;;;;;5030019;28;20045;-67
2024/02/11 12:33:16;;;;;;;7.90;2.85;;;;;;;;;;5029886;28;20411;-68
2024/02/11 12:35:42;;;;;;;20.58;4.63;;;;;;;;;;5028897;28;20037;-67
2024/02/11 12:38:07;;;;;;;5.95;2.20;;;;;;;;;;5028915;28;20423;-70
2024/02/11 12:40:33;;;;;;;6.70;2.58;;;;;;;;;;5033516;28;20047;-68
2024/02/11 12:42:59;;;;;;;12.63;3.22;;;;;;;;;;5030387;28;20045;-68
2024/02/11 12:45:25;;;;;;;8.02;3.08;;;;;;;;;;5028519;28;20103;-68
2024/02/11 12:47:51;;;;;;;10.93;2.60;;;;;;;;;;5011881;28;20401;-68
2024/02/11 12:50:18;;;;;;;4.57;1.67;;;;;;;;;;5027450;28;20037;-67
2024/02/11 12:52:44;;;;;;;8.77;2.20;;;;;;;;;;5026450;28;20037;-68
2024/02/11 12:55:09;;;;;;;6.65;2.42;;;;;;;;;;5021846;28;20392;-67
2024/02/11 12:57:35;;;;;;;8.50;2.70;;;;;;;;;;5019929;28;20075;-68
2024/02/11 13:00:00;;;;;;;9.00;2.65;;;;;;;;;;5029285;28;20033;-68
2024/02/11 13:02:26;;;;;;;6.80;2.05;;;;;;;;;;5029418;28;20033;-68
2024/02/11 13:04:51;;;;;;;4.78;1.77;;;;;;;;;;5029499;28;20057;-67
2024/02/11 13:07:17;;;;;;;5.75;2.75;;;;;;;;;;5028705;28;20037;-67
2024/02/11 13:09:42;;;;;;;8.55;2.88;;;;;;;;;;5029472;28;20037;-68
2024/02/11 13:12:08;;;;;;;7.60;3.80;;;;;;;;;;5029421;28;20596;-67
2024/02/11 13:14:33;;;;;;;6.97;2.95;;;;;;;;;;5029482;28;20428;-68
2024/02/11 13:16:59;;;;;;;8.25;2.33;;;;;;;;;;5029455;28;20038;-68
2024/02/11 13:19:25;;;;;;;6.30;2.47;;;;;;;;;;5025122;28;20045;-68
2024/02/11 13:21:50;;;;;;;10.00;2.60;;;;;;;;;;5029745;28;20404;-68
2024/02/11 13:24:16;;;;;;;9.32;2.47;;;;;;;;;;5029119;28;20118;-68
2024/02/11 13:26:42;;;;;;;8.45;1.83;;;;;;;;;;5029638;28;20041;-67
2024/02/11 13:29:08;;;;;;;4.97;1.98;;;;;;;;;;5029733;28;20049;-68
2024/02/11 13:31:35;;;;;;;6.05;2.25;;;;;;;;;;5032743;28;20037;-68
2024/02/11 13:34:02;;;;;;;5.90;2.47;;;;;;;;;;5033119;28;20026;-68
2024/02/11 13:36:28;;;;;;;8.52;2.45;;;;;;;;;;5032926;28;20052;-67
2024/02/11 13:38:54;;;;;;;6.22;2.15;;;;;;;;;;5032668;28;20041;-69
2024/02/11 13:41:19;;;;;;;6.60;2.28;;;;;;;;;;5032966;28;20048;-68
2024/02/11 13:43:45;;;;;;;6.03;2.15;;;;;;;;;;5031590;28;20037;-68
2024/02/11 13:46:12;;;;;;;10.00;2.40;;;;;;;;;;5032470;28;20022;-68
2024/02/11 13:48:40;;;;;;;7.00;1.75;;;;;;;;;;5032739;28;20132;-67
2024/02/11 13:51:06;;;;;;;4.47;1.90;;;;;;;;;;5032593;28;20045;-68
2024/02/11 13:53:33;;;;;;;8.88;1.98;;;;;;;;;;5032451;28;20042;-67
2024/02/11 13:55:59;;;;;;;5.15;1.88;;;;;;;;;;5032590;28;20128;-68
2024/02/11 13:58:24;;;;;;;5.93;2.17;;;;;;;;;;5032622;28;20490;-68
2024/02/11 14:00:50;;;;;;;11.18;2.90;;;;;;;;;;5032408;28;20034;-67
2024/02/11 14:03:15;;;;;;;5.80;2.42;;;;;;;;;;5022605;28;20096;-68
2024/02/11 14:05:40;;;;;;;4.75;1.60;;;;;;;;;;5027411;28;20045;-68
2024/02/11 14:08:06;;;;;;;3.30;1.98;;;;;;;;;;5032280;28;20064;-68
2024/02/11 14:10:31;;;;;;;3.67;1.50;;;;;;;;;;5030506;28;20106;-68
2024/02/11 14:13:02;;;;;;;3.42;1.50;;;;;;;;;;5031004;28;20037;-68
2024/02/11 14:15:29;;;;;;;3.53;1.52;;;;;;;;;;5032197;28;20041;-68
2024/02/11 14:17:56;;;;;;;3.65;1.65;;;;;;;;;;5031955;28;20049;-68
2024/02/11 14:20:21;;;;;;;4.05;1.40;;;;;;;;;;5030852;28;20037;-67
2024/02/11 14:22:49;;;;;;;3.30;1.70;;;;;;;;;;5031915;28;20607;-68
2024/02/11 14:25:16;;;;;;;3.15;1.35;;;;;;;;;;5031657;28;20045;-68
2024/02/11 14:27:46;;;;;;;3.88;1.70;;;;;;;;;;5032108;28;20725;-68
2024/02/11 14:30:13;;;;;;;4.85;1.75;;;;;;;;;;5030929;28;20526;-68